Time;durP1;ratioP1;P1;durP2;ratioP2;P2;SDS_P1;SDS_P2;PMS_P1;PMS_P2;Temp;Humidity;BMP_temperature;BMP_pressure;BME280_temperature;BME280_humidity;BME280_pressure;Samples;Min_cycle;Max_cycle;Signal;HPM_P1;HPM_P2
2023/07/06 00:01:03;;;;;;;6.10;5.18;;;17.00;99.90;;;;;;5089009;28;20036;-68
2023/07/06 00:03:31;;;;;;;6.68;5.63;;;17.00;99.90;;;;;;5078516;28;20028;-68
2023/07/06 00:05:58;;;;;;;6.55;4.80;;;16.90;99.90;;;;;;5082996;28;20020;-68
2023/07/06 00:08:23;;;;;;;9.45;5.72;;;16.90;99.90;;;;;;5080118;28;20039;-68
2023/07/06 00:10:49;;;;;;;10.15;6.35;;;16.90;99.90;;;;;;5086402;28;20016;-68
2023/07/06 00:13:16;;;;;;;8.73;5.85;;;16.80;99.90;;;;;;5088182;28;20043;-68
2023/07/06 00:15:42;;;;;;;5.45;4.60;;;16.80;99.90;;;;;;5079316;28;20032;-68
2023/07/06 00:18:09;;;;;;;7.57;5.40;;;16.80;99.90;;;;;;5083093;28;20028;-68
2023/07/06 00:20:37;;;;;;;5.40;4.90;;;16.70;99.90;;;;;;5084983;28;20039;-69
2023/07/06 00:23:10;;;;;;;9.82;5.57;;;16.80;99.90;;;;;;5079601;28;20016;-68
2023/07/06 00:25:37;;;;;;;8.82;5.03;;;16.70;99.90;;;;;;5084558;28;20036;-68
2023/07/06 00:28:04;;;;;;;8.15;5.63;;;16.70;99.90;;;;;;5078141;28;20472;-69
2023/07/06 00:30:40;;;;;;;8.07;5.72;;;16.70;99.90;;;;;;5084240;28;20040;-68
2023/07/06 00:33:07;;;;;;;9.18;5.55;;;16.70;99.90;;;;;;5084863;28;20387;-69
2023/07/06 00:35:34;;;;;;;9.05;5.50;;;16.70;99.90;;;;;;5089047;28;20016;-68
2023/07/06 00:38:00;;;;;;;7.63;5.70;;;16.60;99.90;;;;;;5083587;28;20468;-68
2023/07/06 00:40:32;;;;;;;14.40;5.40;;;16.60;99.90;;;;;;5076328;28;20051;-69
2023/07/06 00:42:59;;;;;;;9.43;5.47;;;16.60;99.90;;;;;;5082823;28;20467;-68
2023/07/06 00:45:25;;;;;;;9.60;4.72;;;16.60;99.90;;;;;;5079379;28;20512;-68
2023/07/06 00:48:01;;;;;;;13.57;5.03;;;16.60;99.90;;;;;;5080393;28;20050;-68
2023/07/06 00:50:30;;;;;;;5.95;4.88;;;16.60;99.90;;;;;;5085419;28;20028;-68
2023/07/06 00:53:06;;;;;;;7.32;5.50;;;16.50;99.90;;;;;;5079393;28;20362;-68
2023/07/06 00:55:36;;;;;;;6.68;4.63;;;16.50;99.90;;;;;;5081798;28;20069;-68
2023/07/06 00:58:15;;;;;;;8.13;4.68;;;16.50;99.90;;;;;;5078495;28;20067;-68
2023/07/06 01:00:44;;;;;;;8.02;4.28;;;16.40;99.90;;;;;;5082283;28;20036;-68
2023/07/06 01:03:10;;;;;;;8.60;4.47;;;16.40;99.90;;;;;;5081970;28;20089;-68
2023/07/06 01:05:38;;;;;;;9.13;4.88;;;16.40;99.90;;;;;;5081291;28;20449;-68
2023/07/06 01:08:11;;;;;;;9.63;4.82;;;16.40;99.90;;;;;;5082210;28;20562;-68
2023/07/06 01:10:39;;;;;;;6.60;4.35;;;16.40;99.90;;;;;;5085688;28;20020;-68
2023/07/06 01:13:07;;;;;;;7.82;3.90;;;16.30;99.90;;;;;;5078760;28;20686;-68
2023/07/06 01:15:39;;;;;;;6.03;4.22;;;16.30;99.90;;;;;;5075128;28;20483;-68
2023/07/06 01:18:15;;;;;;;8.50;3.78;;;16.30;99.90;;;;;;5084358;28;20531;-68
2023/07/06 01:20:56;;;;;;;6.80;4.18;;;16.30;99.90;;;;;;5088416;28;20032;-68
2023/07/06 01:23:27;;;;;;;6.25;3.85;;;16.30;99.90;;;;;;5084795;28;20027;-68
2023/07/06 01:25:59;;;;;;;9.77;4.00;;;16.30;99.90;;;;;;5086940;28;20102;-68
2023/07/06 01:28:57;;;;;;;4.28;3.72;;;16.30;99.90;;;;;;5075854;28;20341;-68
2023/07/06 01:31:53;;;;;;;12.13;4.15;;;16.20;99.90;;;;;;5080183;28;20111;-68
2023/07/06 01:34:47;;;;;;;7.10;4.03;;;16.20;99.90;;;;;;5077025;28;20040;-68
2023/07/06 01:37:41;;;;;;;8.48;3.72;;;16.20;99.90;;;;;;5080084;28;20047;-68
2023/07/06 01:40:09;;;;;;;8.25;4.40;;;16.20;99.90;;;;;;5075922;28;20059;-68
2023/07/06 01:42:37;;;;;;;9.35;3.63;;;16.10;99.90;;;;;;5083222;28;20028;-68
2023/07/06 01:45:08;;;;;;;6.65;4.10;;;16.20;99.90;;;;;;5077195;28;20507;-68
2023/07/06 01:47:40;;;;;;;8.43;3.90;;;16.20;99.90;;;;;;5078724;28;20503;-68
2023/07/06 01:50:09;;;;;;;9.63;3.83;;;16.20;99.90;;;;;;5085233;28;20480;-68
2023/07/06 01:52:56;;;;;;;7.78;4.10;;;16.20;99.90;;;;;;5083943;28;20490;-69
2023/07/06 01:55:29;;;;;;;7.60;4.10;;;16.20;99.90;;;;;;5087902;28;20165;-68
2023/07/06 01:58:08;;;;;;;8.23;4.22;;;16.20;99.90;;;;;;5078936;28;20081;-68
2023/07/06 02:00:38;;;;;;;6.50;3.90;;;16.20;99.90;;;;;;5086218;28;20055;-68
2023/07/06 02:03:05;;;;;;;9.73;3.70;;;16.10;99.90;;;;;;5078279;28;20028;-68
2023/07/06 02:05:32;;;;;;;8.30;3.38;;;16.00;99.90;;;;;;5079584;28;20040;-68
2023/07/06 02:07:59;;;;;;;7.13;3.58;;;16.10;99.90;;;;;;5081173;28;20021;-68
2023/07/06 02:10:25;;;;;;;8.38;3.72;;;16.00;99.90;;;;;;5079754;28;20103;-68
2023/07/06 02:12:51;;;;;;;11.13;3.92;;;16.00;99.90;;;;;;5081015;28;20025;-68
2023/07/06 02:15:20;;;;;;;7.80;3.60;;;16.10;99.90;;;;;;5081687;28;20024;-68
2023/07/06 02:17:47;;;;;;;9.27;3.80;;;16.00;99.90;;;;;;5082029;28;20075;-68
2023/07/06 02:20:15;;;;;;;7.85;3.85;;;16.00;99.90;;;;;;5080054;28;20047;-68
2023/07/06 02:22:41;;;;;;;10.65;4.30;;;16.00;99.90;;;;;;5084651;28;20516;-68
2023/07/06 02:25:07;;;;;;;5.68;3.17;;;16.00;99.90;;;;;;5079872;28;20424;-68
2023/07/06 02:27:33;;;;;;;7.30;3.58;;;16.00;99.90;;;;;;5086494;28;20020;-68
2023/07/06 02:29:59;;;;;;;6.50;4.35;;;16.00;99.90;;;;;;5081366;28;20116;-68
2023/07/06 02:32:26;;;;;;;9.25;3.63;;;16.00;99.90;;;;;;5083822;28;20020;-68
2023/07/06 02:34:51;;;;;;;7.82;3.75;;;16.00;99.90;;;;;;5086895;28;20039;-68
2023/07/06 02:37:17;;;;;;;7.60;3.58;;;16.00;99.90;;;;;;5080675;28;22103;-68
2023/07/06 02:39:43;;;;;;;8.82;3.78;;;15.90;99.90;;;;;;5085122;28;20077;-68
2023/07/06 02:42:14;;;;;;;9.07;4.50;;;15.90;99.90;;;;;;5082543;28;20020;-68
2023/07/06 02:44:40;;;;;;;6.43;3.95;;;15.90;99.90;;;;;;5083983;28;20119;-68
2023/07/06 02:47:08;;;;;;;8.77;4.40;;;15.90;99.90;;;;;;5084887;28;20103;-68
2023/07/06 02:49:33;;;;;;;9.95;3.65;;;15.90;99.90;;;;;;5085617;28;20024;-68
2023/07/06 02:52:02;;;;;;;7.07;3.88;;;15.80;99.90;;;;;;5078318;28;20024;-68
2023/07/06 02:54:28;;;;;;;10.43;4.45;;;15.80;99.90;;;;;;5088675;28;20464;-68
2023/07/06 02:56:56;;;;;;;8.52;4.25;;;15.80;99.90;;;;;;5085471;28;20107;-68
2023/07/06 02:59:21;;;;;;;10.18;4.05;;;15.70;99.90;;;;;;5080918;28;20128;-68
2023/07/06 03:01:47;;;;;;;9.95;4.40;;;15.70;99.90;;;;;;5087597;28;20025;-68
2023/07/06 03:04:13;;;;;;;8.45;4.05;;;15.60;99.90;;;;;;5082475;28;20460;-68
2023/07/06 03:06:39;;;;;;;6.78;4.35;;;15.60;99.90;;;;;;5085136;28;20024;-68
2023/07/06 03:09:07;;;;;;;7.50;4.07;;;15.60;99.90;;;;;;5081830;28;20475;-68
2023/07/06 03:11:34;;;;;;;8.73;4.45;;;15.60;99.90;;;;;;5087664;28;20031;-68
2023/07/06 03:14:02;;;;;;;11.63;4.07;;;15.60;99.90;;;;;;5081101;28;20029;-68
2023/07/06 03:16:29;;;;;;;14.70;4.40;;;15.60;99.90;;;;;;5083273;28;20545;-68
2023/07/06 03:18:54;;;;;;;9.82;4.38;;;15.60;99.90;;;;;;5081986;28;20598;-68
2023/07/06 03:21:20;;;;;;;6.55;3.72;;;15.60;99.90;;;;;;5081292;28;20119;-68
2023/07/06 03:23:49;;;;;;;15.68;4.82;;;15.50;99.90;;;;;;5086319;28;20047;-68
2023/07/06 03:26:15;;;;;;;8.50;3.83;;;15.60;99.90;;;;;;5077559;28;20039;-68
2023/07/06 03:28:40;;;;;;;7.88;4.30;;;15.50;99.90;;;;;;5081622;28;20024;-68
2023/07/06 03:31:07;;;;;;;8.85;4.43;;;15.50;99.90;;;;;;5084494;28;20031;-68
2023/07/06 03:33:33;;;;;;;9.75;3.92;;;15.50;99.90;;;;;;5081973;28;20464;-67
2023/07/06 03:36:01;;;;;;;11.43;4.68;;;15.50;99.90;;;;;;5085120;28;20077;-68
2023/07/06 03:38:27;;;;;;;8.60;4.18;;;15.40;99.90;;;;;;5081323;28;20032;-68
2023/07/06 03:40:54;;;;;;;10.50;4.10;;;15.40;99.90;;;;;;5084257;28;20476;-68
2023/07/06 03:43:19;;;;;;;7.88;4.30;;;15.40;99.90;;;;;;5076199;28;20112;-68
2023/07/06 03:45:47;;;;;;;13.55;4.63;;;15.40;99.90;;;;;;5081511;28;20159;-68
2023/07/06 03:48:14;;;;;;;12.43;3.60;;;15.40;99.90;;;;;;5078086;28;20113;-68
2023/07/06 03:50:40;;;;;;;8.85;4.13;;;15.40;99.90;;;;;;5082071;28;20109;-68
2023/07/06 03:53:07;;;;;;;11.82;4.63;;;15.40;99.90;;;;;;5087611;28;20070;-68
2023/07/06 03:55:33;;;;;;;9.63;4.25;;;15.40;99.90;;;;;;5082813;28;20062;-67
2023/07/06 03:58:00;;;;;;;9.40;4.07;;;15.40;99.90;;;;;;5083767;28;20027;-68
2023/07/06 04:00:28;;;;;;;7.63;4.03;;;15.40;99.90;;;;;;5080366;28;20059;-67
2023/07/06 04:02:57;;;;;;;11.25;4.00;;;15.40;99.90;;;;;;5082753;28;20020;-68
2023/07/06 04:05:31;;;;;;;12.95;4.43;;;15.40;99.90;;;;;;5086592;28;20038;-68
2023/07/06 04:08:06;;;;;;;7.45;3.70;;;15.40;99.90;;;;;;5085139;28;20379;-68
2023/07/06 04:10:34;;;;;;;10.57;3.70;;;15.40;99.90;;;;;;5085254;28;20099;-68
2023/07/06 04:13:00;;;;;;;7.20;4.20;;;15.30;99.90;;;;;;5079614;28;20024;-68
2023/07/06 04:15:25;;;;;;;8.77;4.40;;;15.30;99.90;;;;;;5083927;28;20523;-68
2023/07/06 04:17:52;;;;;;;11.55;4.68;;;15.20;99.90;;;;;;5087966;28;20117;-68
2023/07/06 04:20:26;;;;;;;9.73;4.43;;;15.20;99.90;;;;;;5080321;28;20127;-68
2023/07/06 04:22:54;;;;;;;9.38;4.18;;;15.20;99.90;;;;;;5075811;28;20048;-68
2023/07/06 04:25:22;;;;;;;13.02;5.28;;;15.20;99.90;;;;;;5080662;28;20024;-68
2023/07/06 04:27:48;;;;;;;12.75;4.03;;;15.30;99.90;;;;;;5083249;28;20089;-68
2023/07/06 04:30:16;;;;;;;13.40;4.75;;;15.30;99.90;;;;;;5079837;28;20020;-68
2023/07/06 04:32:48;;;;;;;10.25;4.22;;;15.20;99.90;;;;;;5084020;28;20073;-68
2023/07/06 04:35:14;;;;;;;;;;;15.20;99.90;;;;;;5082389;28;20070;-68
2023/07/06 04:37:41;;;;;;;8.68;3.85;;;15.30;99.90;;;;;;5080231;28;19904;-68
2023/07/06 04:40:11;;;;;;;12.13;4.20;;;15.30;99.90;;;;;;5079648;28;20027;-68
2023/07/06 04:42:37;;;;;;;13.25;4.85;;;15.30;99.90;;;;;;5080459;28;20100;-68
2023/07/06 04:45:04;;;;;;;11.35;4.43;;;15.30;99.90;;;;;;5081671;28;20106;-68
2023/07/06 04:47:30;;;;;;;12.55;5.20;;;15.30;99.90;;;;;;5082522;28;20011;-68
2023/07/06 04:49:55;;;;;;;12.13;4.60;;;15.30;99.90;;;;;;5078552;28;20044;-68
2023/07/06 04:52:22;;;;;;;10.43;5.05;;;15.20;99.90;;;;;;5080957;28;20012;-72
2023/07/06 04:54:50;;;;;;;10.48;5.00;;;15.20;99.90;;;;;;5077707;28;20032;-68
2023/07/06 04:57:16;;;;;;;9.23;4.38;;;15.20;99.90;;;;;;5085256;28;20477;-68
2023/07/06 04:59:42;;;;;;;12.68;4.45;;;15.30;99.90;;;;;;5081294;28;20040;-68
2023/07/06 05:02:10;;;;;;;9.57;4.47;;;15.20;99.90;;;;;;5080831;28;20024;-67
2023/07/06 05:04:40;;;;;;;9.95;4.85;;;15.30;99.90;;;;;;5085454;28;20060;-68
2023/07/06 05:07:07;;;;;;;10.85;4.28;;;15.30;99.90;;;;;;5082669;28;20024;-67
2023/07/06 05:09:34;;;;;;;10.32;4.45;;;15.30;99.90;;;;;;5075496;28;20032;-67
2023/07/06 05:12:00;;;;;;;16.00;4.78;;;15.30;99.90;;;;;;5083184;28;20032;-67
2023/07/06 05:14:25;;;;;;;12.38;4.35;;;15.30;99.90;;;;;;5080010;28;20028;-68
2023/07/06 05:16:51;;;;;;;7.65;4.15;;;15.30;99.90;;;;;;5083431;28;20104;-68
2023/07/06 05:19:16;;;;;;;11.52;4.50;;;15.40;99.90;;;;;;5079844;28;20919;-68
2023/07/06 05:21:42;;;;;;;14.30;5.13;;;15.50;99.90;;;;;;5080588;28;20024;-68
2023/07/06 05:24:08;;;;;;;11.50;4.10;;;15.50;99.90;;;;;;5081114;28;20031;-68
2023/07/06 05:26:34;;;;;;;12.13;5.03;;;15.50;99.90;;;;;;5078890;28;20070;-68
2023/07/06 05:28:59;;;;;;;13.05;4.38;;;15.60;99.90;;;;;;5083634;28;20024;-68
2023/07/06 05:31:26;;;;;;;15.63;5.15;;;15.60;99.90;;;;;;5075993;28;20040;-68
2023/07/06 05:33:52;;;;;;;12.15;4.70;;;15.70;99.90;;;;;;5081792;28;20499;-67
2023/07/06 05:36:18;;;;;;;12.25;4.57;;;15.80;99.90;;;;;;5080029;28;20024;-68
2023/07/06 05:38:43;;;;;;;13.05;4.45;;;15.80;99.90;;;;;;5082518;28;20052;-68
2023/07/06 05:41:09;;;;;;;22.15;5.63;;;15.90;99.90;;;;;;5078300;28;20044;-67
2023/07/06 05:43:35;;;;;;;12.75;4.72;;;15.90;99.90;;;;;;5080220;28;20434;-68
2023/07/06 05:46:00;;;;;;;14.52;4.95;;;16.00;99.90;;;;;;5082774;28;20385;-68
2023/07/06 05:48:26;;;;;;;15.70;4.70;;;16.00;99.90;;;;;;5077808;28;20036;-68
2023/07/06 05:50:52;;;;;;;10.60;4.40;;;16.10;99.90;;;;;;5077984;28;20016;-68
2023/07/06 05:53:17;;;;;;;10.13;4.55;;;16.30;99.90;;;;;;5081303;28;20036;-67
2023/07/06 05:55:43;;;;;;;14.20;5.20;;;16.30;99.90;;;;;;5080373;28;20488;-67
2023/07/06 05:58:13;;;;;;;15.45;4.57;;;16.40;99.90;;;;;;5079659;28;20066;-68
2023/07/06 06:00:39;;;;;;;13.18;5.10;;;16.40;99.90;;;;;;5083071;28;20131;-68
2023/07/06 06:03:06;;;;;;;19.65;5.18;;;16.50;99.90;;;;;;5081352;28;20024;-68
2023/07/06 06:05:33;;;;;;;18.95;6.00;;;16.50;99.90;;;;;;5083451;28;20024;-68
2023/07/06 06:08:01;;;;;;;14.25;5.28;;;16.60;99.90;;;;;;5078343;28;20023;-69
2023/07/06 06:10:28;;;;;;;13.35;5.07;;;16.60;99.90;;;;;;5085212;28;20060;-68
2023/07/06 06:12:54;;;;;;;17.75;5.80;;;16.80;99.90;;;;;;5080968;28;20494;-68
2023/07/06 06:15:20;;;;;;;26.00;7.72;;;16.80;99.90;;;;;;5082378;28;20032;-68
2023/07/06 06:17:48;;;;;;;22.77;6.55;;;16.80;99.90;;;;;;5090547;28;20134;-67
2023/07/06 06:20:14;;;;;;;19.05;6.68;;;16.80;99.90;;;;;;5079577;28;20039;-68
2023/07/06 06:22:40;;;;;;;17.02;6.50;;;16.90;99.90;;;;;;5084849;28;20384;-67
2023/07/06 06:25:06;;;;;;;26.77;8.27;;;16.90;99.90;;;;;;5084495;28;20059;-67
2023/07/06 06:27:32;;;;;;;19.52;7.05;;;16.90;99.90;;;;;;5081415;28;20030;-67
2023/07/06 06:29:58;;;;;;;24.02;8.27;;;16.90;99.90;;;;;;5088190;28;20036;-68
2023/07/06 06:32:25;;;;;;;23.10;8.85;;;17.00;99.90;;;;;;5088623;28;20024;-67
2023/07/06 06:34:51;;;;;;;19.90;8.38;;;17.00;99.90;;;;;;5084805;28;20111;-68
2023/07/06 06:37:17;;;;;;;25.20;9.88;;;17.00;99.90;;;;;;5083031;28;20020;-68
2023/07/06 06:39:43;;;;;;;25.65;9.15;;;17.00;99.90;;;;;;5084599;28;20043;-68
2023/07/06 06:42:09;;;;;;;25.50;9.02;;;17.00;99.90;;;;;;5081034;28;20044;-67
2023/07/06 06:44:35;;;;;;;17.50;7.10;;;17.10;99.90;;;;;;5088280;28;20373;-68
2023/07/06 06:47:04;;;;;;;19.17;8.68;;;17.20;99.90;;;;;;5077664;28;20027;-67
2023/07/06 06:49:33;;;;;;;19.70;8.32;;;17.00;99.90;;;;;;5082231;28;20028;-67
2023/07/06 06:52:01;;;;;;;17.02;8.13;;;17.00;99.90;;;;;;5077715;28;20031;-69
2023/07/06 06:54:28;;;;;;;23.67;8.98;;;17.10;99.90;;;;;;5082635;28;20103;-69
2023/07/06 06:56:54;;;;;;;18.85;8.90;;;17.10;99.90;;;;;;5081962;28;20031;-67
2023/07/06 06:59:20;;;;;;;19.02;7.72;;;17.20;99.90;;;;;;5077974;28;20067;-67
2023/07/06 07:01:46;;;;;;;23.40;8.57;;;17.10;99.90;;;;;;5081633;28;20023;-68
2023/07/06 07:04:11;;;;;;;23.38;8.27;;;17.10;99.90;;;;;;5085731;28;20024;-67
2023/07/06 07:06:38;;;;;;;21.73;8.18;;;17.10;99.90;;;;;;5080732;28;20074;-67
2023/07/06 07:09:05;;;;;;;19.50;7.70;;;17.20;99.90;;;;;;5083342;28;20024;-68
2023/07/06 07:11:34;;;;;;;22.65;9.10;;;17.30;99.90;;;;;;5084316;28;20480;-69
2023/07/06 07:14:00;;;;;;;24.10;7.10;;;17.30;99.90;;;;;;5088999;28;20025;-70
2023/07/06 07:16:25;;;;;;;23.02;8.27;;;17.50;99.90;;;;;;5082194;28;20055;-68
2023/07/06 07:18:51;;;;;;;24.52;8.38;;;17.60;99.90;;;;;;5088684;28;20028;-68
2023/07/06 07:21:19;;;;;;;15.40;8.00;;;17.60;99.90;;;;;;5084374;28;20130;-69
2023/07/06 07:23:47;;;;;;;14.02;7.57;;;17.60;99.90;;;;;;5082176;28;20021;-69
2023/07/06 07:26:19;;;;;;;19.80;8.10;;;17.80;99.90;;;;;;5085148;28;20380;-70
2023/07/06 07:28:48;;;;;;;19.38;8.95;;;18.00;99.90;;;;;;5077861;28;20029;-69
2023/07/06 07:31:14;;;;;;;22.63;8.57;;;18.00;99.90;;;;;;5079459;28;20021;-69
2023/07/06 07:33:42;;;;;;;19.67;8.65;;;18.00;99.90;;;;;;5083172;28;20016;-68
2023/07/06 07:36:11;;;;;;;15.20;6.50;;;18.10;99.90;;;;;;5083477;28;20053;-69
2023/07/06 07:38:38;;;;;;;19.30;7.82;;;18.20;99.90;;;;;;5082500;28;20032;-68
2023/07/06 07:41:06;;;;;;;20.90;8.65;;;18.40;99.90;;;;;;5080201;28;20028;-68
2023/07/06 07:43:34;;;;;;;23.17;7.45;;;18.20;99.90;;;;;;5082377;28;20020;-69
2023/07/06 07:46:06;;;;;;;20.70;7.45;;;18.40;99.90;;;;;;5084033;28;21129;-68
2023/07/06 07:48:35;;;;;;;18.75;7.55;;;18.60;99.90;;;;;;5078810;28;20392;-69
2023/07/06 07:51:03;;;;;;;22.50;7.10;;;18.70;99.90;;;;;;5081967;28;20021;-68
2023/07/06 07:53:34;;;;;;;18.95;6.90;;;18.70;99.90;;;;;;5080163;28;20107;-68
2023/07/06 07:56:00;;;;;;;14.57;6.35;;;19.00;99.90;;;;;;5083891;28;20043;-68
2023/07/06 07:58:27;;;;;;;18.17;7.05;;;19.00;99.90;;;;;;5080001;28;20551;-69
2023/07/06 08:00:55;;;;;;;18.13;7.32;;;19.00;99.90;;;;;;5081444;28;20115;-69
2023/07/06 08:03:21;;;;;;;17.77;7.40;;;19.10;99.90;;;;;;5082508;28;20392;-68
2023/07/06 08:05:47;;;;;;;17.05;5.85;;;18.90;99.90;;;;;;5082494;28;20103;-68
2023/07/06 08:08:13;;;;;;;15.50;6.47;;;19.10;99.90;;;;;;5079419;28;20028;-69
2023/07/06 08:10:40;;;;;;;16.20;6.22;;;19.10;99.90;;;;;;5080056;28;20067;-69
2023/07/06 08:13:09;;;;;;;17.25;5.95;;;19.20;99.90;;;;;;5083447;28;20047;-69
2023/07/06 08:15:37;;;;;;;12.35;5.47;;;19.30;99.90;;;;;;5079437;28;20066;-68
2023/07/06 08:18:04;;;;;;;14.35;5.47;;;19.30;99.90;;;;;;5083104;28;20032;-68
2023/07/06 08:20:33;;;;;;;10.52;5.35;;;19.30;99.90;;;;;;5079289;28;20050;-68
2023/07/06 08:23:04;;;;;;;16.60;5.57;;;19.50;99.90;;;;;;5079536;28;20028;-69
2023/07/06 08:25:37;;;;;;;12.50;5.05;;;19.40;99.90;;;;;;5084059;28;20028;-69
2023/07/06 08:28:05;;;;;;;12.50;5.63;;;19.50;99.90;;;;;;5080688;28;20464;-68
2023/07/06 08:30:32;;;;;;;13.45;5.70;;;19.40;99.90;;;;;;5080937;28;20050;-68
2023/07/06 08:33:00;;;;;;;11.20;4.90;;;19.50;99.90;;;;;;5074639;28;20054;-68
2023/07/06 08:35:28;;;;;;;13.48;4.80;;;19.80;99.90;;;;;;5084759;28;20025;-68
2023/07/06 08:37:54;;;;;;;15.52;5.68;;;20.20;99.90;;;;;;5076125;28;20020;-68
2023/07/06 08:40:24;;;;;;;12.85;5.53;;;20.30;99.90;;;;;;5077013;28;20488;-68
2023/07/06 08:42:49;;;;;;;13.75;4.88;;;20.40;99.90;;;;;;5078351;28;20469;-68
2023/07/06 08:45:19;;;;;;;11.98;4.80;;;20.30;99.90;;;;;;5079950;28;20057;-68
2023/07/06 08:47:47;;;;;;;15.25;5.20;;;20.30;99.90;;;;;;5052705;28;20701;-69
2023/07/06 08:50:17;;;;;;;9.20;4.65;;;20.20;99.90;;;;;;5083034;28;20106;-69
2023/07/06 08:52:42;;;;;;;12.02;4.78;;;20.20;99.90;;;;;;5093422;28;20034;-68
2023/07/06 08:55:15;;;;;;;10.20;4.28;;;20.50;99.90;;;;;;5099005;28;20031;-68
2023/07/06 08:57:45;;;;;;;8.40;4.47;;;20.60;99.90;;;;;;5097050;28;20380;-68
2023/07/06 09:00:25;;;;;;;12.63;4.32;;;20.50;99.90;;;;;;5096829;28;20124;-68
2023/07/06 09:03:08;;;;;;;9.82;3.85;;;20.60;99.90;;;;;;5098982;28;22703;-68
2023/07/06 09:05:42;;;;;;;15.82;4.65;;;21.00;99.90;;;;;;5100767;28;20468;-68
2023/07/06 09:08:10;;;;;;;17.40;4.28;;;21.20;99.90;;;;;;5097771;28;20092;-68
2023/07/06 09:10:37;;;;;;;9.18;3.92;;;21.10;99.90;;;;;;5096874;28;20575;-68
2023/07/06 09:13:15;;;;;;;11.05;3.47;;;21.00;99.90;;;;;;5096766;28;20015;-68
2023/07/06 09:15:41;;;;;;;9.85;3.60;;;21.00;99.90;;;;;;5096536;28;20039;-68
2023/07/06 09:18:13;;;;;;;18.05;9.50;;;21.20;99.90;;;;;;5099405;28;20020;-68
2023/07/06 09:20:39;;;;;;;10.40;3.85;;;21.20;99.90;;;;;;5098779;28;20111;-68
2023/07/06 09:23:05;;;;;;;10.77;4.05;;;21.40;99.90;;;;;;5100202;28;20183;-68
2023/07/06 09:25:42;;;;;;;9.40;3.80;;;21.70;99.90;;;;;;5096260;28;20164;-68
2023/07/06 09:28:23;;;;;;;7.57;3.15;;;21.70;99.90;;;;;;5090960;28;20027;-68
2023/07/06 09:30:50;;;;;;;8.48;3.05;;;21.90;99.90;;;;;;5090516;28;20059;-68
2023/07/06 09:33:25;;;;;;;7.03;3.10;;;21.90;99.90;;;;;;5093554;28;20372;-68
2023/07/06 09:35:56;;;;;;;7.00;2.50;;;22.20;99.90;;;;;;5103051;28;20027;-68
2023/07/06 09:38:25;;;;;;;9.07;3.03;;;22.40;99.90;;;;;;5090731;28;20024;-68
2023/07/06 09:40:52;;;;;;;7.22;3.10;;;22.70;99.90;;;;;;5100619;28;20043;-68
2023/07/06 09:43:19;;;;;;;9.23;3.03;;;22.90;99.90;;;;;;5095613;28;20028;-69
2023/07/06 09:45:44;;;;;;;9.75;3.13;;;23.00;99.90;;;;;;5100446;28;20028;-68
2023/07/06 09:48:37;;;;;;;10.27;3.05;;;23.00;99.90;;;;;;5097210;28;20028;-69
2023/07/06 09:51:13;;;;;;;7.35;2.63;;;22.90;99.90;;;;;;5092029;28;20522;-68
2023/07/06 09:54:00;;;;;;;6.63;3.25;;;23.10;99.90;;;;;;5103172;28;20023;-69
2023/07/06 09:56:28;;;;;;;6.47;2.33;;;23.30;99.90;;;;;;5092294;28;20031;-69
2023/07/06 09:58:54;;;;;;;7.68;2.10;;;23.30;99.90;;;;;;5100177;28;20032;-69
2023/07/06 10:01:43;;;;;;;5.60;2.90;;;23.60;99.90;;;;;;5100978;28;20027;-69
2023/07/06 10:04:49;;;;;;;8.57;2.80;;;23.30;99.90;;;;;;5101358;28;20035;-68
2023/07/06 10:08:05;;;;;;;6.18;2.00;;;23.10;99.90;;;;;;5098129;28;20048;-68
2023/07/06 10:10:53;;;;;;;8.32;2.15;;;23.40;99.90;;;;;;5048628;28;20021;-69
2023/07/06 10:13:27;;;;;;;7.18;2.33;;;23.50;99.90;;;;;;5094753;28;20454;-68
2023/07/06 10:16:11;;;;;;;7.90;2.40;;;23.40;99.90;;;;;;5095282;28;20036;-69
2023/07/06 10:19:01;;;;;;;6.85;2.25;;;23.70;99.90;;;;;;5095338;28;20019;-66
2023/07/06 10:21:37;;;;;;;7.72;2.50;;;24.00;99.90;;;;;;5101096;28;20032;-66
2023/07/06 10:24:37;;;;;;;4.38;2.03;;;24.20;99.90;;;;;;5103195;28;20051;-67
2023/07/06 10:27:07;;;;;;;5.45;2.33;;;24.00;99.90;;;;;;5093993;28;20219;-67
2023/07/06 10:29:41;;;;;;;5.55;2.30;;;23.70;99.90;;;;;;5102022;28;20020;-67
2023/07/06 10:32:19;;;;;;;4.20;1.90;;;23.40;99.90;;;;;;5101623;28;20102;-67
2023/07/06 10:35:04;;;;;;;5.45;1.85;;;23.40;99.90;;;;;;5074775;28;20016;-67
2023/07/06 10:37:31;;;;;;;4.43;2.20;;;23.50;99.90;;;;;;5098211;28;20028;-67
2023/07/06 10:40:10;;;;;;;6.55;1.98;;;23.90;99.90;;;;;;5096422;28;20479;-66
2023/07/06 10:42:42;;;;;;;5.28;2.10;;;23.80;99.90;;;;;;5097567;28;20020;-68
2023/07/06 10:45:34;;;;;;;12.30;2.13;;;23.90;99.90;;;;;;5098892;28;20036;-68
2023/07/06 10:48:22;;;;;;;7.68;2.33;;;24.10;99.90;;;;;;5099785;28;20055;-69
2023/07/06 10:51:15;;;;;;;9.57;2.38;;;24.50;99.90;;;;;;5084919;28;20028;-69
2023/07/06 10:53:43;;;;;;;6.60;2.13;;;24.50;99.90;;;;;;5094402;28;20027;-69
2023/07/06 10:56:15;;;;;;;4.80;1.77;;;24.50;99.90;;;;;;5102738;28;20494;-69
2023/07/06 10:58:55;;;;;;;8.80;2.45;;;24.50;99.90;;;;;;5086796;28;20196;-68
2023/07/06 11:01:27;;;;;;;6.30;1.80;;;24.10;99.90;;;;;;5096982;28;21222;-70
2023/07/06 11:03:54;;;;;;;6.90;2.80;;;24.00;99.90;;;;;;5099232;28;20040;-70
2023/07/06 11:06:41;;;;;;;5.95;2.55;;;24.10;99.90;;;;;;5099174;28;20106;-69
2023/07/06 11:09:12;;;;;;;9.70;2.33;;;24.00;99.90;;;;;;5101177;28;20023;-69
2023/07/06 11:12:01;;;;;;;2.85;1.80;;;23.70;99.90;;;;;;5091000;28;20051;-68
2023/07/06 11:14:35;;;;;;;3.85;2.15;;;23.50;99.90;;;;;;5101219;28;20072;-68
2023/07/06 11:17:25;;;;;;;3.85;2.08;;;23.60;99.90;;;;;;5088439;28;20032;-68
2023/07/06 11:20:09;;;;;;;5.57;1.80;;;23.80;99.90;;;;;;5093504;28;20137;-69
2023/07/06 11:22:37;;;;;;;8.52;2.60;;;23.80;99.90;;;;;;5100285;28;20026;-68
2023/07/06 11:25:03;;;;;;;4.47;2.13;;;24.30;99.90;;;;;;5100233;28;20124;-69
2023/07/06 11:27:36;;;;;;;8.57;2.20;;;24.00;99.90;;;;;;5102930;28;20574;-68
2023/07/06 11:30:14;;;;;;;;;;;23.80;99.90;;;;;;5092369;28;20031;-68
2023/07/06 11:33:06;;;;;;;7.63;2.00;;;23.70;99.90;;;;;;5095595;28;19991;-68
2023/07/06 11:36:07;;;;;;;5.45;2.40;;;23.60;99.90;;;;;;5091849;28;20016;-68
2023/07/06 11:38:42;;;;;;;4.50;2.20;;;23.50;99.90;;;;;;5069030;28;20043;-68
2023/07/06 11:41:13;;;;;;;5.18;2.22;;;23.50;99.90;;;;;;5096648;28;20654;-69
2023/07/06 11:44:06;;;;;;;6.57;2.88;;;23.80;99.90;;;;;;5087344;28;20096;-68
2023/07/06 11:47:07;;;;;;;4.30;2.30;;;23.90;99.90;;;;;;5096214;28;20077;-69
2023/07/06 11:49:43;;;;;;;5.35;2.30;;;24.10;99.90;;;;;;5095708;28;20472;-68
2023/07/06 11:52:20;;;;;;;4.75;2.40;;;24.30;99.90;;;;;;5097087;28;20023;-68
2023/07/06 11:54:54;;;;;;;6.30;2.08;;;24.00;99.90;;;;;;5097579;28;20453;-66
2023/07/06 11:57:44;;;;;;;4.43;1.90;;;24.10;99.90;;;;;;5091243;28;20554;-66
2023/07/06 12:02:56;;;;;;;9.15;2.25;;;24.80;99.90;;;;;;5089264;28;20491;-68
2023/07/06 12:05:45;;;;;;;6.07;2.13;;;24.60;99.90;;;;;;5093907;28;20032;-69
2023/07/06 12:08:20;;;;;;;4.05;2.03;;;24.80;99.90;;;;;;5093400;28;20038;-69
2023/07/06 12:10:56;;;;;;;8.75;2.47;;;24.20;99.90;;;;;;5091797;28;20051;-68
2023/07/06 12:13:22;;;;;;;3.80;1.80;;;24.00;99.90;;;;;;5097562;28;20134;-69
2023/07/06 12:15:49;;;;;;;5.57;2.17;;;23.80;99.90;;;;;;5098764;28;20043;-69
2023/07/06 12:18:15;;;;;;;5.05;2.35;;;23.90;99.90;;;;;;5101230;28;20028;-69
2023/07/06 12:20:42;;;;;;;3.95;1.95;;;23.80;99.90;;;;;;5098106;28;20032;-68
2023/07/06 12:23:12;;;;;;;6.00;2.00;;;23.60;99.90;;;;;;5090364;27;20046;-69
2023/07/06 12:25:40;;;;;;;6.30;1.95;;;23.60;99.90;;;;;;5096520;28;20111;-68
2023/07/06 12:28:11;;;;;;;5.07;1.92;;;23.90;99.90;;;;;;5090878;28;20024;-68
2023/07/06 12:30:39;;;;;;;6.57;2.28;;;24.00;99.90;;;;;;5098025;28;20024;-69
2023/07/06 12:33:10;;;;;;;5.50;2.00;;;23.90;99.90;;;;;;5093033;28;20024;-69
2023/07/06 12:35:37;;;;;;;4.95;1.80;;;24.20;99.90;;;;;;5098273;28;20028;-68
2023/07/06 12:38:06;;;;;;;6.57;2.22;;;24.40;99.90;;;;;;5098240;28;20020;-68
2023/07/06 12:40:33;;;;;;;3.88;1.80;;;24.30;99.90;;;;;;5099965;28;20097;-68
2023/07/06 12:43:00;;;;;;;5.63;1.67;;;24.40;99.90;;;;;;5089688;28;20027;-68
2023/07/06 12:45:29;;;;;;;3.78;1.95;;;24.40;99.90;;;;;;5094862;28;20024;-68
2023/07/06 12:47:57;;;;;;;5.68;1.80;;;24.30;99.90;;;;;;5094052;28;20020;-69
2023/07/06 12:50:28;;;;;;;4.30;2.30;;;24.30;99.90;;;;;;5093401;28;20028;-68
2023/07/06 12:53:13;;;;;;;4.25;1.98;;;24.30;99.90;;;;;;5092409;28;20027;-68
2023/07/06 12:55:44;;;;;;;7.28;2.15;;;24.30;99.90;;;;;;5099289;28;20019;-69
2023/07/06 12:58:28;;;;;;;3.10;2.00;;;24.30;99.90;;;;;;5097566;28;20032;-69
2023/07/06 13:01:09;;;;;;;3.05;1.48;;;24.30;99.90;;;;;;5099191;28;20046;-69
2023/07/06 13:03:51;;;;;;;7.68;2.25;;;24.30;99.90;;;;;;5098471;28;20031;-69